sensor_id;sensor_type;location;lat;lon;timestamp;P1;durP1;ratioP1;P2;durP2;ratioP2
52868;SDS011;39100;53.480;6.158;2022-09-13T00:01:42;2.67;;;1.23;;
52868;SDS011;39100;53.480;6.158;2022-09-13T00:04:07;1.45;;;1.27;;
52868;SDS011;39100;53.480;6.158;2022-09-13T00:06:33;2.15;;;1.27;;
52868;SDS011;39100;53.480;6.158;2022-09-13T00:08:59;1.77;;;1.63;;
52868;SDS011;39100;53.480;6.158;2022-09-13T00:11:26;2.38;;;1.40;;
52868;SDS011;39100;53.480;6.158;2022-09-13T00:13:54;1.52;;;1.10;;
52868;SDS011;39100;53.480;6.158;2022-09-13T00:16:22;6.35;;;1.85;;
52868;SDS011;39100;53.480;6.158;2022-09-13T00:18:50;1.95;;;1.50;;
52868;SDS011;39100;53.480;6.158;2022-09-13T00:21:17;1.92;;;1.30;;
52868;SDS011;39100;53.480;6.158;2022-09-13T00:23:48;3.10;;;1.38;;
52868;SDS011;39100;53.480;6.158;2022-09-13T00:26:17;1.55;;;1.45;;
52868;SDS011;39100;53.480;6.158;2022-09-13T00:28:44;2.03;;;1.45;;
52868;SDS011;39100;53.480;6.158;2022-09-13T00:31:15;3.20;;;1.40;;
52868;SDS011;39100;53.480;6.158;2022-09-13T00:33:41;1.95;;;1.60;;
52868;SDS011;39100;53.480;6.158;2022-09-13T00:36:08;2.28;;;1.60;;
52868;SDS011;39100;53.480;6.158;2022-09-13T00:38:35;1.58;;;1.27;;
52868;SDS011;39100;53.480;6.158;2022-09-13T00:41:05;2.20;;;1.33;;
52868;SDS011;39100;53.480;6.158;2022-09-13T00:43:45;2.33;;;1.37;;
52868;SDS011;39100;53.480;6.158;2022-09-13T00:46:16;2.15;;;1.63;;
52868;SDS011;39100;53.480;6.158;2022-09-13T00:48:50;2.33;;;1.77;;
52868;SDS011;39100;53.480;6.158;2022-09-13T00:51:19;3.90;;;1.70;;
52868;SDS011;39100;53.480;6.158;2022-09-13T00:53:47;1.95;;;1.50;;
52868;SDS011;39100;53.480;6.158;2022-09-13T00:56:20;1.95;;;1.52;;
52868;SDS011;39100;53.480;6.158;2022-09-13T00:58:55;2.88;;;1.95;;
52868;SDS011;39100;53.480;6.158;2022-09-13T01:01:28;1.73;;;1.52;;
52868;SDS011;39100;53.480;6.158;2022-09-13T01:03:58;3.97;;;2.03;;
52868;SDS011;39100;53.480;6.158;2022-09-13T01:06:26;2.80;;;2.10;;
52868;SDS011;39100;53.480;6.158;2022-09-13T01:08:56;3.17;;;2.55;;
52868;SDS011;39100;53.480;6.158;2022-09-13T01:11:29;3.63;;;1.80;;
52868;SDS011;39100;53.480;6.158;2022-09-13T01:14:02;2.53;;;1.98;;
52868;SDS011;39100;53.480;6.158;2022-09-13T01:16:28;2.30;;;1.70;;
52868;SDS011;39100;53.480;6.158;2022-09-13T01:18:53;2.22;;;2.00;;
52868;SDS011;39100;53.480;6.158;2022-09-13T01:21:27;6.20;;;2.30;;
52868;SDS011;39100;53.480;6.158;2022-09-13T01:27:40;2.45;;;1.60;;
52868;SDS011;39100;53.480;6.158;2022-09-13T01:30:21;2.40;;;1.08;;
52868;SDS011;39100;53.480;6.158;2022-09-13T01:33:06;1.10;;;0.55;;
52868;SDS011;39100;53.480;6.158;2022-09-13T01:35:39;1.33;;;0.30;;
52868;SDS011;39100;53.480;6.158;2022-09-13T01:41:05;1.70;;;0.20;;
52868;SDS011;39100;53.480;6.158;2022-09-13T01:44:10;0.73;;;0.10;;
52868;SDS011;39100;53.480;6.158;2022-09-13T01:47:05;0.43;;;0.00;;
52868;SDS011;39100;53.480;6.158;2022-09-13T01:50:03;2.38;;;0.13;;
52868;SDS011;39100;53.480;6.158;2022-09-13T01:52:37;2.13;;;0.20;;
52868;SDS011;39100;53.480;6.158;2022-09-13T01:58:01;1.45;;;0.10;;
52868;SDS011;39100;53.480;6.158;2022-09-13T02:00:44;0.85;;;0.00;;
52868;SDS011;39100;53.480;6.158;2022-09-13T02:03:27;0.60;;;0.03;;
52868;SDS011;39100;53.480;6.158;2022-09-13T02:05:59;0.22;;;0.00;;
52868;SDS011;39100;53.480;6.158;2022-09-13T02:11:30;0.40;;;0.10;;
52868;SDS011;39100;53.480;6.158;2022-09-13T02:16:27;1.08;;;0.00;;
52868;SDS011;39100;53.480;6.158;2022-09-13T02:19:02;1.35;;;0.10;;
52868;SDS011;39100;53.480;6.158;2022-09-13T02:21:37;0.28;;;0.03;;
52868;SDS011;39100;53.480;6.158;2022-09-13T02:24:05;2.35;;;0.13;;
52868;SDS011;39100;53.480;6.158;2022-09-13T02:26:36;0.68;;;0.00;;
52868;SDS011;39100;53.480;6.158;2022-09-13T02:29:04;0.57;;;0.10;;
52868;SDS011;39100;53.480;6.158;2022-09-13T02:31:35;0.38;;;0.03;;
52868;SDS011;39100;53.480;6.158;2022-09-13T02:34:07;0.00;;;0.00;;
52868;SDS011;39100;53.480;6.158;2022-09-13T02:36:38;2.28;;;0.20;;
52868;SDS011;39100;53.480;6.158;2022-09-13T02:39:16;0.10;;;0.00;;
52868;SDS011;39100;53.480;6.158;2022-09-13T02:44:46;0.00;;;0.00;;
52868;SDS011;39100;53.480;6.158;2022-09-13T02:49:57;0.10;;;0.10;;
52868;SDS011;39100;53.480;6.158;2022-09-13T02:55:43;0.20;;;0.10;;
52868;SDS011;39100;53.480;6.158;2022-09-13T03:00:52;1.10;;;0.10;;
52868;SDS011;39100;53.480;6.158;2022-09-13T03:03:19;1.40;;;0.00;;
52868;SDS011;39100;53.480;6.158;2022-09-13T03:05:45;0.28;;;0.03;;
52868;SDS011;39100;53.480;6.158;2022-09-13T03:08:11;0.73;;;0.00;;
52868;SDS011;39100;53.480;6.158;2022-09-13T03:10:43;0.85;;;0.10;;
52868;SDS011;39100;53.480;6.158;2022-09-13T03:18:31;1.08;;;0.00;;
52868;SDS011;39100;53.480;6.158;2022-09-13T03:25:00;2.47;;;0.03;;
52868;SDS011;39100;53.480;6.158;2022-09-13T03:37:55;0.63;;;0.00;;
52868;SDS011;39100;53.480;6.158;2022-09-13T03:43:12;0.98;;;0.00;;
52868;SDS011;39100;53.480;6.158;2022-09-13T03:45:45;0.10;;;0.10;;
52868;SDS011;39100;53.480;6.158;2022-09-13T03:48:13;2.40;;;0.10;;
52868;SDS011;39100;53.480;6.158;2022-09-13T03:50:40;0.68;;;0.10;;
52868;SDS011;39100;53.480;6.158;2022-09-13T03:53:10;1.00;;;0.20;;
52868;SDS011;39100;53.480;6.158;2022-09-13T03:55:38;0.65;;;0.00;;
52868;SDS011;39100;53.480;6.158;2022-09-13T03:58:07;0.82;;;0.10;;
52868;SDS011;39100;53.480;6.158;2022-09-13T04:00:37;0.50;;;0.10;;
52868;SDS011;39100;53.480;6.158;2022-09-13T04:03:05;0.60;;;0.20;;
52868;SDS011;39100;53.480;6.158;2022-09-13T04:05:31;0.57;;;0.20;;
52868;SDS011;39100;53.480;6.158;2022-09-13T04:07:58;2.08;;;0.10;;
52868;SDS011;39100;53.480;6.158;2022-09-13T04:10:23;1.02;;;0.20;;
52868;SDS011;39100;53.480;6.158;2022-09-13T04:12:49;0.50;;;0.10;;
52868;SDS011;39100;53.480;6.158;2022-09-13T04:15:15;1.45;;;0.20;;
52868;SDS011;39100;53.480;6.158;2022-09-13T04:17:40;1.35;;;0.00;;
52868;SDS011;39100;53.480;6.158;2022-09-13T04:20:06;1.33;;;0.13;;
52868;SDS011;39100;53.480;6.158;2022-09-13T04:22:32;1.10;;;0.20;;
52868;SDS011;39100;53.480;6.158;2022-09-13T04:24:58;0.05;;;0.03;;
52868;SDS011;39100;53.480;6.158;2022-09-13T04:27:24;0.70;;;0.30;;
52868;SDS011;39100;53.480;6.158;2022-09-13T04:29:49;1.75;;;0.13;;
52868;SDS011;39100;53.480;6.158;2022-09-13T04:32:15;0.95;;;0.20;;
52868;SDS011;39100;53.480;6.158;2022-09-13T04:34:40;2.28;;;0.30;;
52868;SDS011;39100;53.480;6.158;2022-09-13T04:37:07;1.05;;;0.20;;
52868;SDS011;39100;53.480;6.158;2022-09-13T04:39:33;0.82;;;0.10;;
52868;SDS011;39100;53.480;6.158;2022-09-13T04:41:58;0.63;;;0.10;;
52868;SDS011;39100;53.480;6.158;2022-09-13T04:44:24;0.68;;;0.10;;
52868;SDS011;39100;53.480;6.158;2022-09-13T04:46:50;1.20;;;0.13;;
52868;SDS011;39100;53.480;6.158;2022-09-13T04:49:16;1.05;;;0.10;;
52868;SDS011;39100;53.480;6.158;2022-09-13T04:51:42;0.95;;;0.20;;
52868;SDS011;39100;53.480;6.158;2022-09-13T04:54:08;0.55;;;0.20;;
52868;SDS011;39100;53.480;6.158;2022-09-13T04:56:34;0.70;;;0.50;;
52868;SDS011;39100;53.480;6.158;2022-09-13T04:59:00;0.60;;;0.10;;
52868;SDS011;39100;53.480;6.158;2022-09-13T05:01:26;3.22;;;0.10;;
52868;SDS011;39100;53.480;6.158;2022-09-13T05:03:52;3.00;;;0.25;;
52868;SDS011;39100;53.480;6.158;2022-09-13T05:06:18;2.30;;;0.73;;
52868;SDS011;39100;53.480;6.158;2022-09-13T05:08:43;1.75;;;0.15;;
52868;SDS011;39100;53.480;6.158;2022-09-13T05:11:13;1.08;;;0.10;;
52868;SDS011;39100;53.480;6.158;2022-09-13T05:13:38;0.10;;;0.10;;
52868;SDS011;39100;53.480;6.158;2022-09-13T05:16:04;0.55;;;0.10;;
52868;SDS011;39100;53.480;6.158;2022-09-13T05:18:32;1.77;;;0.03;;
52868;SDS011;39100;53.480;6.158;2022-09-13T05:21:00;1.33;;;0.10;;
52868;SDS011;39100;53.480;6.158;2022-09-13T05:23:27;0.10;;;0.10;;
52868;SDS011;39100;53.480;6.158;2022-09-13T05:25:58;1.08;;;0.20;;
52868;SDS011;39100;53.480;6.158;2022-09-13T05:28:26;1.70;;;0.08;;
52868;SDS011;39100;53.480;6.158;2022-09-13T05:30:54;0.50;;;0.10;;
52868;SDS011;39100;53.480;6.158;2022-09-13T05:33:24;0.32;;;0.20;;
52868;SDS011;39100;53.480;6.158;2022-09-13T05:35:51;1.55;;;0.10;;
52868;SDS011;39100;53.480;6.158;2022-09-13T05:38:17;2.28;;;0.20;;
52868;SDS011;39100;53.480;6.158;2022-09-13T05:40:43;0.80;;;0.25;;
52868;SDS011;39100;53.480;6.158;2022-09-13T05:43:09;1.95;;;0.20;;
52868;SDS011;39100;53.480;6.158;2022-09-13T05:45:35;1.98;;;0.15;;
52868;SDS011;39100;53.480;6.158;2022-09-13T05:48:00;0.57;;;0.10;;
52868;SDS011;39100;53.480;6.158;2022-09-13T05:50:26;1.17;;;0.08;;
52868;SDS011;39100;53.480;6.158;2022-09-13T05:52:52;0.55;;;0.13;;
52868;SDS011;39100;53.480;6.158;2022-09-13T05:55:18;1.05;;;0.10;;
52868;SDS011;39100;53.480;6.158;2022-09-13T05:57:45;1.70;;;0.20;;
52868;SDS011;39100;53.480;6.158;2022-09-13T06:00:11;1.27;;;0.20;;
52868;SDS011;39100;53.480;6.158;2022-09-13T06:02:37;1.95;;;0.10;;
52868;SDS011;39100;53.480;6.158;2022-09-13T06:05:03;1.35;;;0.10;;
52868;SDS011;39100;53.480;6.158;2022-09-13T06:07:28;0.80;;;0.13;;
52868;SDS011;39100;53.480;6.158;2022-09-13T06:09:54;1.95;;;0.43;;
52868;SDS011;39100;53.480;6.158;2022-09-13T06:12:19;0.75;;;0.13;;
52868;SDS011;39100;53.480;6.158;2022-09-13T06:14:45;1.55;;;0.20;;
52868;SDS011;39100;53.480;6.158;2022-09-13T06:17:11;3.50;;;0.20;;
52868;SDS011;39100;53.480;6.158;2022-09-13T06:19:36;1.90;;;0.10;;
52868;SDS011;39100;53.480;6.158;2022-09-13T06:22:03;1.85;;;0.30;;
52868;SDS011;39100;53.480;6.158;2022-09-13T06:24:29;1.83;;;0.17;;
52868;SDS011;39100;53.480;6.158;2022-09-13T06:26:54;1.50;;;0.70;;
52868;SDS011;39100;53.480;6.158;2022-09-13T06:29:20;0.17;;;0.05;;
52868;SDS011;39100;53.480;6.158;2022-09-13T06:31:46;1.55;;;0.20;;
52868;SDS011;39100;53.480;6.158;2022-09-13T06:34:11;2.50;;;0.28;;
52868;SDS011;39100;53.480;6.158;2022-09-13T06:36:41;3.97;;;0.20;;
52868;SDS011;39100;53.480;6.158;2022-09-13T06:39:07;1.92;;;0.98;;
52868;SDS011;39100;53.480;6.158;2022-09-13T06:41:33;0.90;;;0.25;;
52868;SDS011;39100;53.480;6.158;2022-09-13T06:43:59;2.08;;;0.13;;
52868;SDS011;39100;53.480;6.158;2022-09-13T06:46:26;0.93;;;0.32;;
52868;SDS011;39100;53.480;6.158;2022-09-13T06:48:53;3.47;;;0.20;;
52868;SDS011;39100;53.480;6.158;2022-09-13T06:51:20;0.98;;;0.20;;
52868;SDS011;39100;53.480;6.158;2022-09-13T06:53:48;1.38;;;0.10;;
52868;SDS011;39100;53.480;6.158;2022-09-13T06:56:19;0.60;;;0.10;;
52868;SDS011;39100;53.480;6.158;2022-09-13T06:58:50;2.55;;;0.20;;
52868;SDS011;39100;53.480;6.158;2022-09-13T07:01:21;1.17;;;0.20;;
52868;SDS011;39100;53.480;6.158;2022-09-13T07:03:49;1.90;;;0.20;;
52868;SDS011;39100;53.480;6.158;2022-09-13T07:06:24;2.50;;;0.30;;
52868;SDS011;39100;53.480;6.158;2022-09-13T07:08:51;3.13;;;0.20;;
52868;SDS011;39100;53.480;6.158;2022-09-13T07:11:19;2.45;;;0.30;;
52868;SDS011;39100;53.480;6.158;2022-09-13T07:13:50;2.63;;;0.88;;
52868;SDS011;39100;53.480;6.158;2022-09-13T07:16:17;1.67;;;0.50;;
52868;SDS011;39100;53.480;6.158;2022-09-13T07:18:44;2.90;;;0.10;;
52868;SDS011;39100;53.480;6.158;2022-09-13T07:21:10;1.15;;;0.10;;
52868;SDS011;39100;53.480;6.158;2022-09-13T07:23:37;3.20;;;0.20;;
52868;SDS011;39100;53.480;6.158;2022-09-13T07:26:04;1.95;;;0.20;;
52868;SDS011;39100;53.480;6.158;2022-09-13T07:28:32;2.95;;;0.13;;
52868;SDS011;39100;53.480;6.158;2022-09-13T07:31:10;1.83;;;0.10;;
52868;SDS011;39100;53.480;6.158;2022-09-13T07:33:38;1.60;;;0.20;;
52868;SDS011;39100;53.480;6.158;2022-09-13T07:36:06;1.90;;;0.38;;
52868;SDS011;39100;53.480;6.158;2022-09-13T07:38:33;1.83;;;0.10;;
52868;SDS011;39100;53.480;6.158;2022-09-13T07:41:02;1.70;;;0.20;;
52868;SDS011;39100;53.480;6.158;2022-09-13T07:43:34;1.85;;;0.10;;
52868;SDS011;39100;53.480;6.158;2022-09-13T07:46:01;0.85;;;0.22;;
52868;SDS011;39100;53.480;6.158;2022-09-13T07:48:29;1.40;;;0.25;;
52868;SDS011;39100;53.480;6.158;2022-09-13T07:50:57;1.27;;;0.50;;
52868;SDS011;39100;53.480;6.158;2022-09-13T07:53:26;0.82;;;0.40;;
52868;SDS011;39100;53.480;6.158;2022-09-13T07:55:52;0.60;;;0.10;;
52868;SDS011;39100;53.480;6.158;2022-09-13T07:58:18;2.60;;;0.20;;
52868;SDS011;39100;53.480;6.158;2022-09-13T08:00:44;0.63;;;0.20;;
52868;SDS011;39100;53.480;6.158;2022-09-13T08:03:10;0.32;;;0.10;;
52868;SDS011;39100;53.480;6.158;2022-09-13T08:05:39;0.63;;;0.10;;
52868;SDS011;39100;53.480;6.158;2022-09-13T08:08:05;0.95;;;0.30;;
52868;SDS011;39100;53.480;6.158;2022-09-13T08:10:32;2.10;;;0.20;;
52868;SDS011;39100;53.480;6.158;2022-09-13T08:12:58;0.90;;;0.15;;
52868;SDS011;39100;53.480;6.158;2022-09-13T08:15:24;1.65;;;0.10;;
52868;SDS011;39100;53.480;6.158;2022-09-13T08:17:50;4.03;;;0.40;;
52868;SDS011;39100;53.480;6.158;2022-09-13T08:20:15;0.70;;;0.10;;
52868;SDS011;39100;53.480;6.158;2022-09-13T08:22:41;3.67;;;0.25;;
52868;SDS011;39100;53.480;6.158;2022-09-13T08:25:07;1.45;;;0.10;;
52868;SDS011;39100;53.480;6.158;2022-09-13T08:27:33;1.30;;;0.35;;
52868;SDS011;39100;53.480;6.158;2022-09-13T08:29:58;1.40;;;0.10;;
52868;SDS011;39100;53.480;6.158;2022-09-13T08:32:24;1.90;;;0.20;;
52868;SDS011;39100;53.480;6.158;2022-09-13T08:34:49;0.57;;;0.10;;
52868;SDS011;39100;53.480;6.158;2022-09-13T08:37:15;1.92;;;0.10;;
52868;SDS011;39100;53.480;6.158;2022-09-13T08:39:40;3.03;;;0.60;;
52868;SDS011;39100;53.480;6.158;2022-09-13T08:45:10;1.63;;;0.20;;
52868;SDS011;39100;53.480;6.158;2022-09-13T08:47:43;0.75;;;0.10;;
52868;SDS011;39100;53.480;6.158;2022-09-13T09:01:02;0.52;;;0.20;;
52868;SDS011;39100;53.480;6.158;2022-09-13T09:06:13;1.27;;;0.20;;
52868;SDS011;39100;53.480;6.158;2022-09-13T09:08:45;0.50;;;0.10;;
52868;SDS011;39100;53.480;6.158;2022-09-13T09:11:43;0.82;;;0.20;;
52868;SDS011;39100;53.480;6.158;2022-09-13T09:17:14;0.82;;;0.28;;
52868;SDS011;39100;53.480;6.158;2022-09-13T09:19:45;2.22;;;0.10;;
52868;SDS011;39100;53.480;6.158;2022-09-13T09:22:18;1.15;;;0.40;;
52868;SDS011;39100;53.480;6.158;2022-09-13T09:24:53;1.20;;;0.13;;
52868;SDS011;39100;53.480;6.158;2022-09-13T09:27:20;1.50;;;0.57;;
52868;SDS011;39100;53.480;6.158;2022-09-13T09:29:50;1.73;;;0.10;;
52868;SDS011;39100;53.480;6.158;2022-09-13T09:40:58;2.38;;;0.22;;
52868;SDS011;39100;53.480;6.158;2022-09-13T09:43:30;1.10;;;0.17;;
52868;SDS011;39100;53.480;6.158;2022-09-13T09:46:00;1.58;;;0.28;;
52868;SDS011;39100;53.480;6.158;2022-09-13T09:48:29;1.63;;;0.17;;
52868;SDS011;39100;53.480;6.158;2022-09-13T09:51:03;2.72;;;0.10;;
52868;SDS011;39100;53.480;6.158;2022-09-13T09:53:32;0.35;;;0.13;;
52868;SDS011;39100;53.480;6.158;2022-09-13T09:58:40;0.47;;;0.10;;
52868;SDS011;39100;53.480;6.158;2022-09-13T10:01:14;1.38;;;0.20;;
52868;SDS011;39100;53.480;6.158;2022-09-13T10:03:48;1.70;;;0.43;;
52868;SDS011;39100;53.480;6.158;2022-09-13T10:06:28;3.05;;;0.20;;
52868;SDS011;39100;53.480;6.158;2022-09-13T10:09:03;3.00;;;0.20;;
52868;SDS011;39100;53.480;6.158;2022-09-13T10:11:39;3.22;;;0.40;;
52868;SDS011;39100;53.480;6.158;2022-09-13T10:19:36;1.45;;;0.20;;
52868;SDS011;39100;53.480;6.158;2022-09-13T10:22:09;1.20;;;0.30;;
52868;SDS011;39100;53.480;6.158;2022-09-13T10:24:36;2.03;;;0.20;;
52868;SDS011;39100;53.480;6.158;2022-09-13T10:27:02;1.98;;;0.30;;
52868;SDS011;39100;53.480;6.158;2022-09-13T10:29:29;1.80;;;0.20;;
52868;SDS011;39100;53.480;6.158;2022-09-13T10:31:56;1.23;;;0.35;;
52868;SDS011;39100;53.480;6.158;2022-09-13T10:36:56;1.98;;;0.30;;
52868;SDS011;39100;53.480;6.158;2022-09-13T10:39:26;1.20;;;0.20;;
52868;SDS011;39100;53.480;6.158;2022-09-13T10:42:00;3.05;;;0.30;;
52868;SDS011;39100;53.480;6.158;2022-09-13T10:44:39;2.50;;;0.30;;
52868;SDS011;39100;53.480;6.158;2022-09-13T10:47:22;1.23;;;0.15;;
52868;SDS011;39100;53.480;6.158;2022-09-13T10:49:55;1.23;;;0.43;;
52868;SDS011;39100;53.480;6.158;2022-09-13T10:54:52;2.38;;;0.35;;
52868;SDS011;39100;53.480;6.158;2022-09-13T10:57:36;2.60;;;0.20;;
52868;SDS011;39100;53.480;6.158;2022-09-13T11:00:05;4.15;;;0.47;;
52868;SDS011;39100;53.480;6.158;2022-09-13T11:13:38;1.98;;;0.32;;
52868;SDS011;39100;53.480;6.158;2022-09-13T11:16:19;3.13;;;0.20;;
52868;SDS011;39100;53.480;6.158;2022-09-13T11:30:37;1.60;;;0.20;;
52868;SDS011;39100;53.480;6.158;2022-09-13T11:33:22;2.50;;;0.70;;
52868;SDS011;39100;53.480;6.158;2022-09-13T11:38:51;1.23;;;0.20;;
52868;SDS011;39100;53.480;6.158;2022-09-13T11:47:26;0.45;;;0.10;;
52868;SDS011;39100;53.480;6.158;2022-09-13T11:55:42;2.97;;;0.47;;
52868;SDS011;39100;53.480;6.158;2022-09-13T11:58:55;2.95;;;0.30;;
52868;SDS011;39100;53.480;6.158;2022-09-13T12:01:07;2.38;;;0.20;;
52868;SDS011;39100;53.480;6.158;2022-09-13T12:03:40;1.70;;;0.45;;
52868;SDS011;39100;53.480;6.158;2022-09-13T12:06:20;2.50;;;0.30;;
52868;SDS011;39100;53.480;6.158;2022-09-13T12:08:46;5.03;;;0.93;;
52868;SDS011;39100;53.480;6.158;2022-09-13T12:11:16;2.60;;;0.30;;
52868;SDS011;39100;53.480;6.158;2022-09-13T12:13:52;1.95;;;0.28;;
52868;SDS011;39100;53.480;6.158;2022-09-13T12:16:31;2.33;;;0.52;;
52868;SDS011;39100;53.480;6.158;2022-09-13T12:19:05;1.02;;;0.20;;
52868;SDS011;39100;53.480;6.158;2022-09-13T12:21:46;3.75;;;0.20;;
52868;SDS011;39100;53.480;6.158;2022-09-13T12:32:14;1.83;;;0.20;;
52868;SDS011;39100;53.480;6.158;2022-09-13T12:34:55;3.00;;;0.35;;
52868;SDS011;39100;53.480;6.158;2022-09-13T12:37:34;3.30;;;0.45;;
52868;SDS011;39100;53.480;6.158;2022-09-13T12:40:33;1.52;;;0.10;;
52868;SDS011;39100;53.480;6.158;2022-09-13T12:43:07;1.45;;;0.22;;
52868;SDS011;39100;53.480;6.158;2022-09-13T12:48:39;2.38;;;0.30;;
52868;SDS011;39100;53.480;6.158;2022-09-13T12:51:19;1.27;;;0.40;;
52868;SDS011;39100;53.480;6.158;2022-09-13T12:56:41;1.55;;;0.10;;
52868;SDS011;39100;53.480;6.158;2022-09-13T13:01:51;0.98;;;0.20;;
52868;SDS011;39100;53.480;6.158;2022-09-13T13:04:19;1.42;;;0.10;;
52868;SDS011;39100;53.480;6.158;2022-09-13T13:09:21;1.88;;;0.20;;
52868;SDS011;39100;53.480;6.158;2022-09-13T13:12:11;2.50;;;0.20;;
52868;SDS011;39100;53.480;6.158;2022-09-13T13:15:00;0.32;;;0.30;;
52868;SDS011;39100;53.480;6.158;2022-09-13T13:17:44;3.97;;;0.20;;
52868;SDS011;39100;53.480;6.158;2022-09-13T13:23:19;2.58;;;0.55;;
52868;SDS011;39100;53.480;6.158;2022-09-13T13:39:04;1.75;;;0.60;;
52868;SDS011;39100;53.480;6.158;2022-09-13T13:41:55;1.70;;;0.22;;
52868;SDS011;39100;53.480;6.158;2022-09-13T14:14:13;1.65;;;0.20;;
52868;SDS011;39100;53.480;6.158;2022-09-13T14:17:25;0.95;;;0.10;;
52868;SDS011;39100;53.480;6.158;2022-09-13T14:20:29;0.75;;;0.10;;
52868;SDS011;39100;53.480;6.158;2022-09-13T14:22:49;0.13;;;0.05;;
52868;SDS011;39100;53.480;6.158;2022-09-13T14:25:21;2.58;;;0.20;;
52868;SDS011;39100;53.480;6.158;2022-09-13T14:27:48;1.05;;;0.13;;
52868;SDS011;39100;53.480;6.158;2022-09-13T14:30:38;1.50;;;0.20;;
52868;SDS011;39100;53.480;6.158;2022-09-13T14:33:04;2.30;;;0.08;;
52868;SDS011;39100;53.480;6.158;2022-09-13T14:35:33;0.50;;;0.13;;
52868;SDS011;39100;53.480;6.158;2022-09-13T14:38:12;1.20;;;0.10;;
52868;SDS011;39100;53.480;6.158;2022-09-13T14:40:56;2.50;;;0.22;;
52868;SDS011;39100;53.480;6.158;2022-09-13T14:43:25;0.57;;;0.10;;
52868;SDS011;39100;53.480;6.158;2022-09-13T14:45:58;1.30;;;0.30;;
52868;SDS011;39100;53.480;6.158;2022-09-13T14:48:48;0.60;;;0.20;;
52868;SDS011;39100;53.480;6.158;2022-09-13T14:52:00;0.68;;;0.10;;
52868;SDS011;39100;53.480;6.158;2022-09-13T14:54:11;3.13;;;0.40;;
52868;SDS011;39100;53.480;6.158;2022-09-13T14:56:45;1.25;;;0.10;;
52868;SDS011;39100;53.480;6.158;2022-09-13T14:59:20;2.28;;;0.17;;
52868;SDS011;39100;53.480;6.158;2022-09-13T15:01:55;1.95;;;0.20;;
52868;SDS011;39100;53.480;6.158;2022-09-13T15:04:22;1.35;;;0.10;;
52868;SDS011;39100;53.480;6.158;2022-09-13T15:07:04;2.03;;;0.30;;
52868;SDS011;39100;53.480;6.158;2022-09-13T15:09:32;0.82;;;0.10;;
52868;SDS011;39100;53.480;6.158;2022-09-13T15:11:59;0.70;;;0.10;;
52868;SDS011;39100;53.480;6.158;2022-09-13T15:16:52;1.23;;;0.10;;
52868;SDS011;39100;53.480;6.158;2022-09-13T15:19:26;0.70;;;0.00;;
52868;SDS011;39100;53.480;6.158;2022-09-13T15:22:03;2.60;;;0.50;;
52868;SDS011;39100;53.480;6.158;2022-09-13T15:24:42;1.77;;;0.20;;
52868;SDS011;39100;53.480;6.158;2022-09-13T15:35:39;1.02;;;0.00;;
52868;SDS011;39100;53.480;6.158;2022-09-13T15:41:08;1.40;;;0.00;;
52868;SDS011;39100;53.480;6.158;2022-09-13T15:43:42;0.30;;;0.03;;
52868;SDS011;39100;53.480;6.158;2022-09-13T15:46:10;0.40;;;0.10;;
52868;SDS011;39100;53.480;6.158;2022-09-13T15:48:49;1.97;;;0.20;;
52868;SDS011;39100;53.480;6.158;2022-09-13T15:51:16;1.08;;;0.20;;
52868;SDS011;39100;53.480;6.158;2022-09-13T15:53:43;0.50;;;0.10;;
52868;SDS011;39100;53.480;6.158;2022-09-13T15:56:19;2.00;;;0.00;;
52868;SDS011;39100;53.480;6.158;2022-09-13T15:58:50;1.00;;;0.00;;
52868;SDS011;39100;53.480;6.158;2022-09-13T16:01:16;0.73;;;0.20;;
52868;SDS011;39100;53.480;6.158;2022-09-13T16:03:42;1.25;;;0.10;;
52868;SDS011;39100;53.480;6.158;2022-09-13T16:06:08;1.10;;;0.17;;
52868;SDS011;39100;53.480;6.158;2022-09-13T16:08:36;0.35;;;0.10;;
52868;SDS011;39100;53.480;6.158;2022-09-13T16:11:03;0.70;;;0.10;;
52868;SDS011;39100;53.480;6.158;2022-09-13T16:13:29;1.88;;;0.08;;
52868;SDS011;39100;53.480;6.158;2022-09-13T16:15:56;2.03;;;0.10;;
52868;SDS011;39100;53.480;6.158;2022-09-13T16:18:22;2.15;;;0.13;;
52868;SDS011;39100;53.480;6.158;2022-09-13T16:20:48;0.50;;;0.10;;
52868;SDS011;39100;53.480;6.158;2022-09-13T16:23:14;2.28;;;0.30;;
52868;SDS011;39100;53.480;6.158;2022-09-13T16:25:39;2.30;;;0.10;;
52868;SDS011;39100;53.480;6.158;2022-09-13T16:28:06;1.20;;;0.08;;
52868;SDS011;39100;53.480;6.158;2022-09-13T16:30:32;1.30;;;0.10;;
52868;SDS011;39100;53.480;6.158;2022-09-13T16:32:58;0.90;;;0.10;;
52868;SDS011;39100;53.480;6.158;2022-09-13T16:35:28;1.95;;;0.17;;
52868;SDS011;39100;53.480;6.158;2022-09-13T16:37:55;2.10;;;0.20;;
52868;SDS011;39100;53.480;6.158;2022-09-13T16:40:21;0.70;;;0.20;;
52868;SDS011;39100;53.480;6.158;2022-09-13T16:42:47;0.52;;;0.13;;
52868;SDS011;39100;53.480;6.158;2022-09-13T16:45:13;0.68;;;0.10;;
52868;SDS011;39100;53.480;6.158;2022-09-13T16:47:39;0.55;;;0.10;;
52868;SDS011;39100;53.480;6.158;2022-09-13T16:50:05;1.35;;;0.63;;
52868;SDS011;39100;53.480;6.158;2022-09-13T16:52:32;0.65;;;0.17;;
52868;SDS011;39100;53.480;6.158;2022-09-13T16:54:59;0.65;;;0.20;;
52868;SDS011;39100;53.480;6.158;2022-09-13T16:57:25;1.63;;;0.55;;
52868;SDS011;39100;53.480;6.158;2022-09-13T16:59:51;0.30;;;0.10;;
52868;SDS011;39100;53.480;6.158;2022-09-13T17:02:18;0.40;;;0.03;;
52868;SDS011;39100;53.480;6.158;2022-09-13T17:04:44;0.45;;;0.00;;
52868;SDS011;39100;53.480;6.158;2022-09-13T17:07:11;1.17;;;0.20;;
52868;SDS011;39100;53.480;6.158;2022-09-13T17:09:37;1.40;;;0.10;;
52868;SDS011;39100;53.480;6.158;2022-09-13T17:12:04;0.25;;;0.10;;
52868;SDS011;39100;53.480;6.158;2022-09-13T17:14:31;0.63;;;0.25;;
52868;SDS011;39100;53.480;6.158;2022-09-13T17:16:57;0.38;;;0.05;;
52868;SDS011;39100;53.480;6.158;2022-09-13T17:19:27;0.73;;;0.40;;
52868;SDS011;39100;53.480;6.158;2022-09-13T17:21:55;0.93;;;0.10;;
52868;SDS011;39100;53.480;6.158;2022-09-13T17:24:22;0.70;;;0.10;;
52868;SDS011;39100;53.480;6.158;2022-09-13T17:26:48;0.80;;;0.10;;
52868;SDS011;39100;53.480;6.158;2022-09-13T17:29:14;1.35;;;0.10;;
52868;SDS011;39100;53.480;6.158;2022-09-13T17:31:39;1.77;;;0.22;;
52868;SDS011;39100;53.480;6.158;2022-09-13T17:34:07;0.63;;;0.17;;
52868;SDS011;39100;53.480;6.158;2022-09-13T17:36:33;1.95;;;0.10;;
52868;SDS011;39100;53.480;6.158;2022-09-13T17:38:58;1.85;;;0.10;;
52868;SDS011;39100;53.480;6.158;2022-09-13T17:41:24;2.38;;;0.20;;
52868;SDS011;39100;53.480;6.158;2022-09-13T17:43:50;0.63;;;0.00;;
52868;SDS011;39100;53.480;6.158;2022-09-13T17:46:21;0.30;;;0.00;;
52868;SDS011;39100;53.480;6.158;2022-09-13T17:51:16;1.23;;;0.00;;
52868;SDS011;39100;53.480;6.158;2022-09-13T17:53:48;1.40;;;0.20;;
52868;SDS011;39100;53.480;6.158;2022-09-13T17:56:19;0.52;;;0.10;;
52868;SDS011;39100;53.480;6.158;2022-09-13T17:59:03;1.05;;;0.10;;
52868;SDS011;39100;53.480;6.158;2022-09-13T18:01:30;0.63;;;0.10;;
52868;SDS011;39100;53.480;6.158;2022-09-13T18:03:56;0.70;;;0.15;;
52868;SDS011;39100;53.480;6.158;2022-09-13T18:06:21;1.42;;;0.22;;
52868;SDS011;39100;53.480;6.158;2022-09-13T18:08:47;1.77;;;0.30;;
52868;SDS011;39100;53.480;6.158;2022-09-13T18:11:16;2.65;;;0.20;;
52868;SDS011;39100;53.480;6.158;2022-09-13T18:13:44;1.23;;;0.10;;
52868;SDS011;39100;53.480;6.158;2022-09-13T18:16:11;1.70;;;0.25;;
52868;SDS011;39100;53.480;6.158;2022-09-13T18:18:39;0.90;;;0.03;;
52868;SDS011;39100;53.480;6.158;2022-09-13T18:21:05;1.38;;;0.10;;
52868;SDS011;39100;53.480;6.158;2022-09-13T18:23:31;1.20;;;0.10;;
52868;SDS011;39100;53.480;6.158;2022-09-13T18:25:58;0.43;;;0.10;;
52868;SDS011;39100;53.480;6.158;2022-09-13T18:28:26;0.85;;;0.20;;
52868;SDS011;39100;53.480;6.158;2022-09-13T18:30:52;0.57;;;0.30;;
52868;SDS011;39100;53.480;6.158;2022-09-13T18:33:19;1.33;;;0.40;;
52868;SDS011;39100;53.480;6.158;2022-09-13T18:35:55;0.40;;;0.10;;